Impacts METAR Board INFO
IDs:

KDTW - Detroit Metro/Wayne, MI, US

Updated at: 1039 UTC 18 Dec 2017
Potential Impact None Slight Moderate High
Time17/22Z 17/23Z 18/00Z 18/01Z 18/02Z 18/03Z 18/04Z 18/05Z 18/06Z 18/07Z 18/08Z 18/09Z 18/10Z
VIS6 6 6 5 5 5 5 6 7 7 7 7
CIG11 120 130 120 120 70 70 75 75 90 90 60
CoverOVCOVCOVCOVCOVCOVCOVCOVCBKNBKNOVCOVC
FltCatMVFRVFRVFRMVFRMVFRMVFRMVFRVFRVFRVFRVFRVFR
WXHZHZHZBRBRBRHZBR--------
WDir10070120140180180210210200210220210
WSpd4 3 4 3 5 5 7 5 7 9 11 10
WGst-- -- -- -- -- -- -- -- -- -- -- --
Raw hourly METARs
KDTW 172153Z 10004KT 6SM HZ BKN011 OVC140 02/M01 A3008 RMK AO2 SLP192 T00221006 $
KDTW 172253Z 07003KT 6SM HZ SCT011 OVC120 02/M01 A3008 RMK AO2 SLP191 T00221006 $
KDTW 172353Z 12004KT 6SM HZ FEW011 OVC130 02/M01 A3006 RMK AO2 SLP186 T00221011 10028 20011 58008 $
KDTW 180053Z 14003KT 5SM BR OVC120 02/M01 A3005 RMK AO2 SLP184 T00171006 $
KDTW 180153Z 18005KT 5SM BR OVC120 02/M01 A3005 RMK AO2 SLP184 T00171006 $
KDTW 180253Z 18005KT 5SM BR OVC070 01/M01 A3004 RMK AO2 SLP178 T00111011 58008 $
KDTW 180353Z 21007KT 5SM HZ BKN070 OVC120 02/M01 A3004 RMK AO2 SLP178 T00221006 $
KDTW 180453Z 21005KT 6SM BR SCT050 OVC075 01/M01 A3004 RMK AO2 SLP178 T00061011 400281039 $
KDTW 180553Z 20007KT 7SM FEW050 BKN075 BKN200 00/M02 A3000 RMK AO2 SLP167 T00001017 10022 20000 58010 $
KDTW 180653Z 21009KT 7SM FEW055 BKN090 BKN200 03/01 A2999 RMK AO2 SLP162 T00280011 $
KDTW 180753Z 22011KT 7SM SCT035 BKN090 OVC200 04/02 A2999 RMK AO2 SLP161 T00390017 $
KDTW 180853Z 21010KT 7SM SCT025 BKN060 OVC120 04/02 A2998 RMK AO2 SLP157 T00390017 57003 $